createdAt,value
2023-05-19T00:02:44.110Z,25.82
2023-05-19T00:07:48.202Z,25.75
2023-05-19T00:12:53.807Z,25.68
2023-05-19T00:17:58.167Z,25.65
2023-05-19T00:23:01.118Z,25.54
2023-05-19T00:28:04.067Z,25.57
2023-05-19T00:33:08.267Z,25.51
2023-05-19T00:38:11.242Z,25.46
2023-05-19T00:43:14.201Z,25.41
2023-05-19T00:48:18.426Z,25.38
2023-05-19T00:53:22.122Z,25.32
2023-05-19T00:58:29.156Z,25.27
2023-05-19T01:03:35.049Z,25.23
2023-05-19T01:08:39.566Z,25.17
2023-05-19T01:13:42.539Z,25.14
2023-05-19T01:18:57.941Z,25.10
2023-05-19T01:24:22.816Z,25.06
2023-05-19T01:29:51.775Z,25.02
2023-05-19T01:34:59.302Z,24.99
2023-05-19T01:40:02.397Z,24.96
2023-05-19T01:45:10.369Z,24.92
2023-05-19T01:50:14.623Z,24.87
2023-05-19T01:55:17.723Z,24.79
2023-05-19T02:00:32.792Z,24.78
2023-05-19T02:05:46.714Z,24.74
2023-05-19T02:10:56.104Z,24.73
2023-05-19T02:16:05.411Z,24.71
2023-05-19T02:21:13.346Z,24.70
2023-05-19T02:26:16.181Z,24.66
2023-05-19T02:31:19.070Z,24.62
2023-05-19T02:36:23.317Z,24.51
2023-05-19T02:41:27.073Z,24.57
2023-05-19T02:46:30.567Z,24.54
2023-05-19T02:51:34.875Z,24.54
2023-05-19T02:56:37.715Z,24.53
2023-05-19T03:01:40.621Z,24.50
2023-05-19T03:06:45.521Z,24.47
2023-05-19T03:11:48.415Z,24.48
2023-05-19T03:16:51.517Z,24.43
2023-05-19T03:21:56.412Z,24.40
2023-05-19T03:26:59.242Z,24.39
2023-05-19T03:32:02.584Z,24.36
2023-05-19T03:37:06.903Z,24.35
2023-05-19T03:42:12.525Z,24.32
2023-05-19T03:47:15.938Z,24.27
2023-05-19T03:52:22.691Z,24.23
2023-05-19T03:57:33.591Z,24.21
2023-05-19T04:02:36.609Z,24.21
2023-05-19T04:07:41.367Z,24.21
2023-05-19T04:12:44.427Z,24.19
2023-05-19T04:17:47.384Z,24.18
2023-05-19T04:22:51.547Z,24.15
2023-05-19T04:27:57.693Z,24.18
2023-05-19T04:33:01.106Z,24.13
2023-05-19T04:38:05.553Z,24.10
2023-05-19T04:43:11.348Z,24.09
2023-05-19T04:48:16.064Z,24.08
2023-05-19T04:53:22.007Z,24.07
2023-05-19T04:58:26.069Z,24.06
2023-05-19T05:03:30.852Z,24.08
2023-05-19T05:08:35.459Z,24.09
2023-05-19T05:13:39.008Z,24.09
2023-05-19T05:18:44.605Z,24.10
2023-05-19T05:23:50.131Z,24.13
2023-05-19T05:28:53.512Z,24.15
2023-05-19T05:33:56.881Z,24.15
2023-05-19T05:39:05.662Z,24.15
2023-05-19T05:44:08.912Z,24.17
2023-05-19T05:49:14.706Z,24.18
2023-05-19T05:54:23.178Z,24.20
2023-05-19T05:59:27.418Z,24.21
2023-05-19T06:04:31.022Z,24.21
2023-05-19T06:09:35.288Z,24.24
2023-05-19T06:14:39.162Z,24.27
2023-05-19T06:20:10.227Z,24.28
2023-05-19T06:25:15.078Z,24.32
2023-05-19T06:30:18.486Z,24.32
2023-05-19T06:35:39.400Z,24.34
2023-05-19T06:40:44.051Z,24.32
2023-05-19T06:45:47.019Z,24.35
2023-05-19T06:50:50.698Z,24.33
2023-05-19T06:55:59.797Z,24.34
2023-05-19T07:01:07.571Z,24.35
2023-05-19T07:06:17.081Z,24.36
2023-05-19T07:11:21.676Z,24.36
2023-05-19T07:16:24.906Z,24.35
2023-05-19T07:21:28.054Z,24.37
2023-05-19T07:26:32.334Z,24.40
2023-05-19T07:31:35.602Z,24.41
2023-05-19T07:36:38.620Z,24.42
2023-05-19T07:41:42.977Z,23.90
2023-05-19T07:46:46.024Z,23.87
2023-05-19T07:51:48.946Z,23.63
2023-05-19T07:56:53.260Z,23.04
2023-05-19T08:01:56.291Z,23.34
2023-05-19T08:06:59.678Z,23.90
2023-05-19T08:12:04.944Z,24.08
2023-05-19T08:17:07.891Z,24.13
2023-05-19T08:22:10.905Z,24.18
2023-05-19T08:27:15.418Z,24.20
2023-05-19T08:32:18.701Z,24.17
2023-05-19T08:37:21.676Z,24.29
2023-05-19T08:42:25.974Z,24.32
2023-05-19T08:47:29.874Z,24.34
2023-05-19T08:52:41.033Z,24.34
2023-05-19T08:57:46.490Z,24.33
2023-05-19T09:03:00.753Z,24.36
2023-05-19T09:08:09.524Z,24.36
2023-05-19T09:13:14.206Z,24.37
2023-05-19T09:18:17.187Z,24.38
2023-05-19T09:23:20.950Z,24.37
2023-05-19T09:28:30.510Z,24.38
2023-05-19T09:33:35.008Z,24.40
2023-05-19T09:38:39.116Z,24.34
2023-05-19T09:43:43.811Z,24.44
2023-05-19T09:48:46.632Z,24.46
2023-05-19T09:53:49.563Z,24.42
2023-05-19T09:58:53.882Z,24.41
2023-05-19T10:03:57.340Z,24.43
2023-05-19T10:09:01.467Z,24.36
2023-05-19T10:14:06.890Z,24.45
2023-05-19T10:19:10.782Z,24.46
2023-05-19T10:24:13.873Z,24.49
2023-05-19T10:29:23.030Z,24.49
2023-05-19T10:34:57.262Z,24.57
2023-05-19T10:40:00.463Z,24.53
2023-05-19T10:45:12.924Z,24.33
2023-05-19T10:50:17.334Z,24.41
2023-05-19T10:55:47.131Z,24.45
2023-05-19T11:01:02.308Z,24.58
2023-05-19T11:06:18.993Z,24.60
2023-05-19T11:11:23.463Z,24.28
2023-05-19T11:16:32.566Z,24.38
2023-05-19T11:21:43.086Z,24.37
2023-05-19T11:26:47.576Z,24.62
2023-05-19T14:19:55.810Z,23.90
2023-05-19T14:25:00.459Z,24.54
2023-05-19T14:30:03.483Z,24.86
2023-05-19T14:35:08.761Z,25.16
2023-05-19T14:40:12.692Z,25.22
2023-05-19T14:45:16.433Z,25.36
2023-05-19T14:50:20.783Z,25.10
2023-05-19T14:55:23.588Z,25.22
2023-05-19T15:00:26.949Z,25.44
2023-05-19T15:05:31.128Z,25.37
2023-05-19T15:10:34.144Z,25.40
2023-05-19T15:15:37.166Z,25.53
2023-05-19T15:20:41.291Z,25.57
2023-05-19T15:25:45.504Z,25.72
2023-05-19T15:30:48.481Z,25.71
2023-05-19T15:35:52.814Z,25.91
2023-05-19T15:40:55.676Z,25.82
2023-05-19T15:45:58.602Z,25.75
2023-05-19T15:51:03.114Z,25.81
2023-05-19T15:56:06.497Z,25.82
2023-05-19T16:01:10.117Z,25.89
2023-05-19T16:06:14.586Z,25.85
2023-05-19T16:11:18.244Z,26.02
2023-05-19T16:16:21.221Z,26.25
2023-05-19T16:21:25.532Z,26.37
2023-05-19T16:26:28.949Z,26.50
2023-05-19T16:31:31.862Z,26.48
2023-05-19T16:36:36.499Z,26.21
2023-05-19T16:41:41.643Z,26.27
2023-05-19T16:46:44.542Z,26.14
2023-05-19T16:51:48.968Z,26.21
2023-05-19T16:56:53.495Z,26.17
2023-05-19T17:01:56.973Z,26.11
2023-05-19T17:07:01.268Z,26.29
2023-05-19T17:12:04.616Z,26.48
2023-05-19T17:17:07.699Z,26.60
2023-05-19T17:22:12.004Z,26.53
2023-05-19T17:27:15.055Z,26.06
2023-05-19T17:32:18.105Z,25.96
2023-05-19T17:37:25.597Z,26.21
2023-05-19T17:42:29.086Z,26.58
2023-05-19T17:47:31.976Z,26.62
2023-05-19T17:52:36.849Z,26.63
2023-05-19T17:57:41.446Z,26.59
2023-05-19T18:02:45.252Z,26.55
2023-05-19T18:07:50.773Z,26.57
2023-05-19T18:12:53.818Z,26.58
2023-05-19T18:17:56.681Z,26.60
2023-05-19T18:23:01.049Z,26.63
2023-05-19T18:28:03.868Z,26.54
2023-05-19T18:33:07.405Z,26.67
2023-05-19T18:38:11.753Z,26.69
2023-05-19T18:43:14.581Z,26.72
2023-05-19T18:48:17.587Z,26.44
2023-05-19T18:53:22.077Z,26.64
2023-05-19T18:58:25.038Z,26.65
2023-05-19T19:03:28.601Z,26.64
2023-05-19T19:08:32.933Z,26.65
2023-05-19T19:13:35.997Z,26.64
2023-05-19T19:18:39.146Z,26.62
2023-05-19T19:23:43.736Z,26.55
2023-05-19T19:28:46.745Z,26.39
2023-05-19T19:33:49.577Z,26.69
2023-05-19T19:38:53.758Z,26.64
2023-05-19T19:43:56.880Z,26.81
2023-05-19T19:49:00.408Z,26.62
2023-05-19T19:54:04.687Z,26.84
2023-05-19T19:59:07.635Z,26.87
2023-05-19T20:05:15.406Z,26.86
2023-05-19T20:10:20.009Z,26.96
2023-05-19T20:15:22.849Z,26.97
2023-05-19T20:20:25.622Z,26.97
2023-05-19T20:25:29.825Z,27.00
2023-05-19T20:30:33.277Z,27.03
2023-05-19T20:35:36.435Z,27.06
2023-05-19T20:40:40.743Z,27.08
2023-05-19T20:45:44.252Z,27.09
2023-05-19T20:50:47.123Z,27.10
2023-05-19T20:55:51.274Z,27.11
2023-05-19T21:00:57.533Z,27.04
2023-05-19T21:06:00.965Z,27.14
2023-05-19T21:11:05.153Z,27.12
2023-05-19T21:16:08.181Z,27.11
2023-05-19T21:21:10.986Z,27.10
2023-05-19T21:26:15.441Z,27.06
2023-05-19T21:31:18.317Z,27.03
2023-05-19T21:36:21.265Z,27.03
2023-05-19T21:41:25.968Z,27.03
2023-05-19T21:46:29.413Z,26.80
2023-05-19T21:51:34.973Z,26.84
2023-05-19T21:56:39.219Z,26.93
2023-05-19T22:01:42.275Z,26.99
2023-05-19T22:06:45.478Z,27.00
2023-05-19T22:11:49.713Z,27.03
2023-05-19T22:16:52.536Z,27.07
2023-05-19T22:22:01.869Z,27.12
2023-05-19T22:27:10.316Z,27.17
2023-05-19T22:32:14.074Z,27.16
2023-05-19T22:37:16.839Z,27.21
2023-05-19T22:42:21.163Z,27.24
2023-05-19T22:47:23.984Z,27.29
2023-05-19T22:52:26.838Z,27.34
2023-05-19T22:57:31.177Z,27.30
2023-05-19T23:02:33.946Z,27.36
2023-05-19T23:07:36.796Z,27.40
2023-05-19T23:12:41.006Z,27.40
2023-05-19T23:17:43.832Z,27.40
2023-05-19T23:22:46.741Z,27.42
2023-05-19T23:27:50.882Z,27.43
2023-05-19T23:32:53.923Z,27.46
2023-05-19T23:37:56.732Z,27.47
2023-05-19T23:43:01.101Z,27.47
2023-05-19T23:48:04.066Z,27.50
2023-05-19T23:53:06.913Z,27.50
2023-05-19T23:58:11.236Z,27.49
